Time;durP1;ratioP1;P1;durP2;ratioP2;P2;SDS_P1;SDS_P2;PMS_P1;PMS_P2;Temp;Humidity;BMP_temperature;BMP_pressure;BME280_temperature;BME280_humidity;BME280_pressure;Samples;Min_cycle;Max_cycle;Signal;HPM_P1;HPM_P2
2022/10/26 00:02:05;;;;;;;;;;;;;;;14.95;100.00;98946.44;5040356;28;19968;-44
2022/10/26 00:04:30;;;;;;;;;;;;;;;14.46;100.00;98943.69;5039451;28;19917;-45
2022/10/26 00:06:55;;;;;;;;;;;;;;;14.66;100.00;98952.25;5041965;28;19924;-44
2022/10/26 00:09:21;;;;;;;;;;;;;;;14.65;100.00;98954.00;5039076;28;20015;-45
2022/10/26 00:11:46;;;;;;;;;;;;;;;14.76;100.00;98943.13;5041372;28;20005;-45
2022/10/26 00:14:11;;;;;;;;;;;;;;;14.92;100.00;98938.81;5040835;28;19927;-45
2022/10/26 00:16:36;;;;;;;;;;;;;;;14.93;100.00;98943.06;5041073;28;19939;-44
2022/10/26 00:19:01;;;;;;;;;;;;;;;14.68;100.00;98942.66;5039520;28;19927;-44
2022/10/26 00:21:27;;;;;;;;;;;;;;;14.64;100.00;98927.25;5041511;28;20008;-44
2022/10/26 00:23:52;;;;;;;;;;;;;;;14.50;100.00;98932.22;5040364;28;19966;-44
2022/10/26 00:26:17;;;;;;;;;;;;;;;14.80;100.00;98931.66;5039524;28;19979;-43
2022/10/26 00:28:42;;;;;;;;;;;;;;;14.60;100.00;98925.72;5054165;28;19932;-44
2022/10/26 00:31:11;;;;;;;;;;;;;;;15.08;100.00;98922.50;5039326;28;19920;-44
2022/10/26 00:33:36;;;;;;;;;;;;;;;14.25;100.00;98929.16;5039734;28;19920;-45
2022/10/26 00:36:01;;;;;;;;;;;;;;;14.94;100.00;98926.63;5040388;28;19940;-45
2022/10/26 00:38:27;;;;;;;;;;;;;;;14.73;100.00;98932.88;5040268;28;20339;-45
2022/10/26 00:40:52;;;;;;;;;;;;;;;14.78;100.00;98929.16;5040469;28;19925;-45
2022/10/26 00:43:20;;;;;;;;;;;;;;;15.03;100.00;98925.31;5041642;28;19921;-45
2022/10/26 00:45:45;;;;;;;;;;;;;;;15.31;100.00;98922.13;5041259;28;20078;-46
2022/10/26 00:48:13;;;;;;;;;;;;;;;14.97;100.00;98931.63;5039557;28;20014;-45
2022/10/26 00:50:40;;;;;;;;;;;;;;;15.40;100.00;98919.03;5038883;28;19924;-46
2022/10/26 00:53:05;;;;;;;;;;;;;;;14.97;100.00;98926.47;5039078;28;19927;-45
2022/10/26 00:55:31;;;;;;;;;;;;;;;15.32;100.00;98926.38;5039164;28;20747;-45
2022/10/26 00:57:56;;;;;;;;;;;;;;;15.38;100.00;98928.66;5038255;28;20004;-45
2022/10/26 01:00:22;;;;;;;;;;;;;;;15.05;100.00;98920.88;5038546;28;20055;-45
2022/10/26 01:02:47;;;;;;;;;;;;;;;15.23;100.00;98934.63;5040073;28;19971;-45
2022/10/26 01:05:13;;;;;;;;;;;;;;;15.31;100.00;98931.66;5040505;28;19960;-46
2022/10/26 01:07:38;;;;;;;;;;;;;;;15.22;100.00;98932.97;5040301;28;19927;-47
2022/10/26 01:10:03;;;;;;;;;;;;;;;15.02;100.00;98924.47;5035630;28;19920;-47
2022/10/26 01:12:29;;;;;;;;;;;;;;;15.34;100.00;98916.75;5038911;28;20019;-45
2022/10/26 01:14:54;;;;;;;;;;;;;;;15.28;100.00;98909.31;5039198;28;19932;-45
2022/10/26 01:17:58;;;;;;;;;;;;;;;15.12;100.00;98916.19;5038643;28;21111;-45
2022/10/26 01:20:42;;;;;;;;;;;;;;;15.27;100.00;98908.44;5006443;28;19921;-45
2022/10/26 01:23:15;;;;;;;;;;;;;;;15.44;100.00;98917.09;5003682;28;19921;-46
2022/10/26 01:26:00;;;;;;;;;;;;;;;15.35;100.00;98904.59;5018911;28;19921;-45
2022/10/26 01:28:43;;;;;;;;;;;;;;;15.53;100.00;98902.78;5038421;28;19917;-46
2022/10/26 01:31:09;;;;;;;;;;;;;;;15.08;100.00;98905.16;5036858;28;20364;-46
2022/10/26 01:33:37;;;;;;;;;;;;;;;15.65;100.00;98900.38;5037089;28;19967;-45
2022/10/26 01:36:13;;;;;;;;;;;;;;;15.34;100.00;98895.16;5038457;28;19955;-45
2022/10/26 01:38:41;;;;;;;;;;;;;;;15.19;100.00;98892.47;5038247;28;19999;-45
2022/10/26 01:41:15;;;;;;;;;;;;;;;15.57;100.00;98888.75;5053085;28;20266;-45
2022/10/26 01:43:45;;;;;;;;;;;;;;;15.17;100.00;98893.47;5039696;28;19920;-46
2022/10/26 01:46:10;;;;;;;;;;;;;;;15.29;100.00;98892.00;5038800;28;19929;-45
2022/10/26 01:48:36;;;;;;;;;;;;;;;15.02;100.00;98901.13;5037315;28;20378;-45
2022/10/26 01:51:01;;;;;;;;;;;;;;;15.44;100.00;98891.16;5038067;28;20296;-45
2022/10/26 01:53:27;;;;;;;;;;;;;;;15.68;100.00;98889.81;5038672;28;19948;-45
2022/10/26 01:55:53;;;;;;;;;;;;;;;15.40;100.00;98882.72;5038331;28;19917;-45
2022/10/26 01:58:21;;;;;;;;;;;;;;;15.23;100.00;98887.94;5037876;28;19920;-45
2022/10/26 02:00:51;;;;;;;;;;;;;;;15.41;100.00;98886.13;5037430;28;20320;-45
2022/10/26 02:03:22;;;;;;;;;;;;;;;15.36;100.00;98878.59;5035527;28;20522;-45
2022/10/26 02:05:57;;;;;;;;;;;;;;;15.20;100.00;98875.97;5037991;28;19923;-46
2022/10/26 02:08:25;;;;;;;;;;;;;;;15.63;100.00;98880.63;5035612;28;20531;-45
2022/10/26 02:10:53;;;;;;;;;;;;;;;15.53;100.00;98864.72;5039641;28;20364;-46
2022/10/26 02:13:36;;;;;;;;;;;;;;;15.32;100.00;98876.25;5037236;28;19974;-45
2022/10/26 02:16:09;;;;;;;;;;;;;;;15.89;100.00;98871.41;5039781;28;20066;-45
2022/10/26 02:18:42;;;;;;;;;;;;;;;15.69;100.00;98870.75;5035812;28;19921;-45
2022/10/26 02:21:12;;;;;;;;;;;;;;;15.36;100.00;98870.81;5037585;28;19925;-45
2022/10/26 02:23:38;;;;;;;;;;;;;;;15.58;100.00;98867.91;5043641;28;19917;-45
2022/10/26 02:26:03;;;;;;;;;;;;;;;15.74;100.00;98870.53;5043303;28;19947;-46
2022/10/26 02:28:33;;;;;;;;;;;;;;;15.42;100.00;98867.91;5043544;28;20071;-45
2022/10/26 02:30:58;;;;;;;;;;;;;;;15.30;100.00;98871.13;5044173;28;19920;-45
2022/10/26 02:33:24;;;;;;;;;;;;;;;15.47;100.00;98860.69;5043537;28;19929;-50
2022/10/26 02:35:49;;;;;;;;;;;;;;;15.79;100.00;98855.50;5044013;28;20012;-46
2022/10/26 02:38:15;;;;;;;;;;;;;;;15.72;100.00;98849.00;5044451;28;19959;-46
2022/10/26 02:40:40;;;;;;;;;;;;;;;15.77;100.00;98846.97;5033091;28;19924;-45
2022/10/26 02:43:06;;;;;;;;;;;;;;;15.74;100.00;98847.16;5042790;28;19921;-45
2022/10/26 02:45:37;;;;;;;;;;;;;;;15.81;100.00;98842.47;5043734;28;19924;-45
2022/10/26 02:48:03;;;;;;;;;;;;;;;15.69;100.00;98834.41;5045515;28;19944;-45
2022/10/26 02:50:37;;;;;;;;;;;;;;;15.60;100.00;98828.84;5044457;28;19917;-46
2022/10/26 02:53:14;;;;;;;;;;;;;;;15.83;100.00;98823.28;5042928;28;19960;-46
2022/10/26 02:55:42;;;;;;;;;;;;;;;16.02;100.00;98835.22;5044207;28;19948;-46
2022/10/26 02:58:08;;;;;;;;;;;;;;;15.47;100.00;98834.72;5044031;28;19928;-45
2022/10/26 03:00:33;;;;;;;;;;;;;;;16.07;100.00;98827.97;5043242;28;19964;-45
2022/10/26 03:03:01;;;;;;;;;;;;;;;16.21;100.00;98825.41;5045122;28;19949;-45
2022/10/26 03:05:27;;;;;;;;;;;;;;;15.91;100.00;98820.22;5045579;28;19925;-46
2022/10/26 03:07:53;;;;;;;;;;;;;;;15.52;100.00;98815.47;5043224;28;19920;-45
2022/10/26 03:10:18;;;;;;;;;;;;;;;15.68;100.00;98817.13;5042688;28;19928;-45
2022/10/26 03:12:43;;;;;;;;;;;;;;;15.61;100.00;98822.75;5044736;28;19921;-46
2022/10/26 03:15:09;;;;;;;;;;;;;;;16.01;100.00;98829.19;5044704;28;19920;-45
2022/10/26 03:17:34;;;;;;;;;;;;;;;15.73;100.00;98829.88;5044850;28;19928;-46
2022/10/26 03:19:59;;;;;;;;;;;;;;;15.98;100.00;98826.75;5045152;28;20480;-45
2022/10/26 03:22:24;;;;;;;;;;;;;;;15.78;100.00;98817.50;5044721;28;20293;-46
2022/10/26 03:24:50;;;;;;;;;;;;;;;16.26;100.00;98826.00;5042944;28;20306;-45
2022/10/26 03:27:15;;;;;;;;;;;;;;;16.03;100.00;98816.09;5041683;28;19916;-45
2022/10/26 03:29:40;;;;;;;;;;;;;;;16.21;100.00;98812.44;5043110;28;19921;-45
2022/10/26 03:32:05;;;;;;;;;;;;;;;16.18;100.00;98811.78;5042903;28;19924;-44
2022/10/26 03:34:31;;;;;;;;;;;;;;;16.31;100.00;98808.38;5043421;28;19917;-45
2022/10/26 03:36:56;;;;;;;;;;;;;;;16.58;100.00;98802.47;5041199;28;19920;-46
2022/10/26 03:39:21;;;;;;;;;;;;;;;16.45;100.00;98806.75;5040657;28;20343;-45
2022/10/26 03:41:46;;;;;;;;;;;;;;;16.46;100.00;98804.03;5040579;28;20503;-45
2022/10/26 03:44:12;;;;;;;;;;;;;;;15.93;100.00;98809.75;5041091;28;19921;-45
2022/10/26 03:46:37;;;;;;;;;;;;;;;16.21;100.00;98811.59;5041609;28;19946;-46
2022/10/26 03:49:02;;;;;;;;;;;;;;;15.86;100.00;98814.47;5040646;28;19956;-45
2022/10/26 03:51:28;;;;;;;;;;;;;;;16.89;100.00;98805.84;5038664;28;20427;-46
2022/10/26 03:53:53;;;;;;;;;;;;;;;16.68;100.00;98793.19;5039731;28;19948;-46
2022/10/26 03:56:18;;;;;;;;;;;;;;;16.49;100.00;98803.88;5056389;28;19928;-45
2022/10/26 03:58:43;;;;;;;;;;;;;;;16.46;100.00;98803.19;5039734;28;19920;-46
2022/10/26 04:01:09;;;;;;;;;;;;;;;16.17;100.00;98800.56;5039443;28;19940;-46
2022/10/26 04:03:34;;;;;;;;;;;;;;;16.44;100.00;98805.06;5041732;28;19923;-45
2022/10/26 04:06:00;;;;;;;;;;;;;;;16.47;100.00;98800.53;5039404;28;19955;-46
2022/10/26 04:08:25;;;;;;;;;;;;;;;16.56;100.00;98798.28;5040855;28;19916;-46
2022/10/26 04:10:50;;;;;;;;;;;;;;;16.57;100.00;98799.97;5039161;28;19974;-45
2022/10/26 04:13:16;;;;;;;;;;;;;;;16.47;100.00;98797.09;5040707;28;19920;-46
2022/10/26 04:15:42;;;;;;;;;;;;;;;16.42;100.00;98789.56;5040644;28;19921;-47
2022/10/26 04:18:07;;;;;;;;;;;;;;;16.85;100.00;98792.19;5041080;28;19991;-45
2022/10/26 04:20:33;;;;;;;;;;;;;;;16.70;100.00;98793.94;5037697;28;19936;-45
2022/10/26 04:23:03;;;;;;;;;;;;;;;16.63;100.00;98792.63;5035940;28;19948;-46
2022/10/26 04:25:29;;;;;;;;;;;;;;;16.66;100.00;98800.25;5039138;28;19923;-46
2022/10/26 04:27:54;;;;;;;;;;;;;;;16.68;100.00;98792.38;5036298;28;19917;-46
2022/10/26 04:30:20;;;;;;;;;;;;;;;16.45;100.00;98804.13;5038521;28;19916;-45
2022/10/26 04:32:45;;;;;;;;;;;;;;;16.64;100.00;98807.28;5038675;28;19927;-45
2022/10/26 04:35:10;;;;;;;;;;;;;;;16.42;100.00;98796.50;5041298;28;20117;-45
2022/10/26 04:37:35;;;;;;;;;;;;;;;16.52;100.00;98802.84;5040278;28;19921;-46
2022/10/26 04:40:00;;;;;;;;;;;;;;;16.47;100.00;98804.88;5039456;28;19917;-46
2022/10/26 04:42:26;;;;;;;;;;;;;;;16.83;100.00;98801.88;5039124;28;19928;-45
2022/10/26 04:44:51;;;;;;;;;;;;;;;17.07;100.00;98799.50;5038123;28;19936;-45
2022/10/26 04:47:16;;;;;;;;;;;;;;;16.52;100.00;98808.03;5037610;28;19927;-45
2022/10/26 04:49:41;;;;;;;;;;;;;;;16.28;100.00;98810.31;5039784;28;20036;-46
2022/10/26 04:52:07;;;;;;;;;;;;;;;16.83;100.00;98811.41;5039145;28;19956;-46
2022/10/26 04:54:32;;;;;;;;;;;;;;;16.85;100.00;98815.59;5039540;28;19920;-46
2022/10/26 04:56:57;;;;;;;;;;;;;;;16.67;100.00;98812.34;5039551;28;19940;-46
2022/10/26 04:59:22;;;;;;;;;;;;;;;16.82;100.00;98807.16;5040346;28;19912;-46
2022/10/26 05:01:47;;;;;;;;;;;;;;;16.98;100.00;98807.06;5040056;28;19936;-45
2022/10/26 05:04:13;;;;;;;;;;;;;;;16.97;100.00;98803.63;5040141;28;19923;-45
2022/10/26 05:06:38;;;;;;;;;;;;;;;17.13;100.00;98808.72;5038816;28;20020;-45
2022/10/26 05:09:03;;;;;;;;;;;;;;;17.00;100.00;98803.44;5037834;28;19956;-46
2022/10/26 05:11:28;;;;;;;;;;;;;;;17.28;100.00;98799.09;5037368;28;19999;-48
2022/10/26 05:13:54;;;;;;;;;;;;;;;16.84;100.00;98802.69;5037434;28;20404;-47
2022/10/26 05:16:19;;;;;;;;;;;;;;;16.47;100.00;98815.28;5054739;28;19920;-46
2022/10/26 05:18:46;;;;;;;;;;;;;;;16.97;100.00;98807.97;5037108;28;19921;-45
2022/10/26 05:21:18;;;;;;;;;;;;;;;17.18;100.00;98798.03;5039842;28;19986;-46
2022/10/26 05:23:43;;;;;;;;;;;;;;;17.33;100.00;98794.44;5039112;28;20086;-45
2022/10/26 05:26:08;;;;;;;;;;;;;;;17.13;100.00;98800.91;5037928;28;20035;-46
2022/10/26 05:28:33;;;;;;;;;;;;;;;17.37;100.00;98795.94;5037141;28;19921;-45
2022/10/26 05:30:59;;;;;;;;;;;;;;;16.54;100.00;98803.59;5040101;28;19921;-46
2022/10/26 05:33:24;;;;;;;;;;;;;;;17.30;100.00;98799.84;5039930;28;19977;-46
2022/10/26 05:35:52;;;;;;;;;;;;;;;17.36;100.00;98802.06;5040180;28;20375;-46
2022/10/26 05:38:17;;;;;;;;;;;;;;;17.11;100.00;98790.59;5035489;28;19943;-46
2022/10/26 05:40:49;;;;;;;;;;;;;;;17.03;100.00;98792.81;5036809;28;20366;-45
2022/10/26 05:43:14;;;;;;;;;;;;;;;16.99;100.00;98796.56;5037428;28;19964;-46
2022/10/26 05:45:39;;;;;;;;;;;;;;;17.27;100.00;98794.84;5039538;28;20575;-46
2022/10/26 05:48:05;;;;;;;;;;;;;;;17.64;100.00;98795.13;5037028;28;19928;-45
2022/10/26 05:50:30;;;;;;;;;;;;;;;17.05;100.00;98796.16;5038558;28;19939;-45
2022/10/26 05:52:55;;;;;;;;;;;;;;;17.14;100.00;98803.41;5037814;28;19924;-45
2022/10/26 05:55:21;;;;;;;;;;;;;;;17.26;100.00;98803.56;5038387;28;19921;-45
2022/10/26 05:57:46;;;;;;;;;;;;;;;17.49;100.00;98799.50;5035454;28;20942;-45
2022/10/26 06:00:19;;;;;;;;;;;;;;;17.14;100.00;98812.97;5038046;28;19917;-46
2022/10/26 06:02:44;;;;;;;;;;;;;;;17.29;100.00;98811.22;5039030;28;19921;-46
2022/10/26 06:05:10;;;;;;;;;;;;;;;17.49;100.00;98818.59;5039307;28;19928;-45
2022/10/26 06:07:35;;;;;;;;;;;;;;;17.75;100.00;98821.31;5033685;28;19927;-46
2022/10/26 06:10:00;;;;;;;;;;;;;;;17.54;100.00;98816.53;5034981;28;20425;-46
2022/10/26 06:12:26;;;;;;;;;;;;;;;17.67;100.00;98818.34;5036556;28;19920;-45
2022/10/26 06:14:51;;;;;;;;;;;;;;;17.29;100.00;98817.25;5035518;28;19920;-45
2022/10/26 06:17:23;;;;;;;;;;;;;;;17.56;100.00;98822.47;5039144;28;20407;-45
2022/10/26 06:19:55;;;;;;;;;;;;;;;17.29;100.00;98813.81;5036610;28;19925;-45
2022/10/26 06:22:32;;;;;;;;;;;;;;;17.39;100.00;98812.28;5035727;28;19931;-45
2022/10/26 06:25:09;;;;;;;;;;;;;;;17.13;100.00;98812.16;5037382;28;19952;-50
2022/10/26 06:27:41;;;;;;;;;;;;;;;17.46;100.00;98818.78;5023532;28;20015;-46
2022/10/26 06:30:10;;;;;;;;;;;;;;;17.36;100.00;98815.09;5034748;28;19921;-48
2022/10/26 06:32:36;;;;;;;;;;;;;;;17.53;100.00;98814.84;5035645;28;19943;-46
2022/10/26 06:35:02;;;;;;;;;;;;;;;17.33;100.00;98816.13;5034737;28;19920;-46
2022/10/26 06:37:27;;;;;;;;;;;;;;;17.14;100.00;98813.81;5037191;28;20433;-45
2022/10/26 06:39:52;;;;;;;;;;;;;;;17.79;100.00;98814.97;5033478;28;20324;-46
2022/10/26 06:42:17;;;;;;;;;;;;;;;17.53;100.00;98809.63;5038856;28;19933;-46
2022/10/26 06:44:43;;;;;;;;;;;;;;;18.20;100.00;98803.63;5037539;28;19912;-46
2022/10/26 06:47:17;;;;;;;;;;;;;;;17.62;100.00;98810.00;5036903;28;19916;-46
2022/10/26 06:49:50;;;;;;;;;;;;;;;17.49;100.00;98821.19;5031437;28;19967;-45
2022/10/26 06:52:17;;;;;;;;;;;;;;;17.26;100.00;98809.59;5035727;28;20374;-46
2022/10/26 06:54:45;;;;;;;;;;;;;;;17.37;100.00;98815.91;5036636;28;19912;-45
2022/10/26 06:57:11;;;;;;;;;;;;;;;17.73;100.00;98812.75;5036063;28;19925;-45
2022/10/26 06:59:49;;;;;;;;;;;;;;;17.68;100.00;98820.03;5034374;28;19932;-45
2022/10/26 07:02:14;;;;;;;;;;;;;;;17.91;100.00;98815.97;5035887;28;20591;-46
2022/10/26 07:04:40;;;;;;;;;;;;;;;17.61;100.00;98803.09;5036086;28;19913;-46
2022/10/26 07:07:06;;;;;;;;;;;;;;;18.06;100.00;98808.91;5035441;28;19994;-45
2022/10/26 07:09:31;;;;;;;;;;;;;;;17.90;100.00;98815.13;5037206;28;19936;-46
2022/10/26 07:11:56;;;;;;;;;;;;;;;17.85;100.00;98814.59;5041215;28;19931;-46
2022/10/26 07:14:21;;;;;;;;;;;;;;;17.73;100.00;98817.97;5042389;28;19920;-45
2022/10/26 07:16:46;;;;;;;;;;;;;;;17.67;100.00;98813.13;5041749;28;19928;-46
2022/10/26 07:19:12;;;;;;;;;;;;;;;17.50;100.00;98817.66;5041704;28;19917;-46
2022/10/26 07:21:37;;;;;;;;;;;;;;;17.52;100.00;98820.16;5039106;28;19928;-46
2022/10/26 07:24:02;;;;;;;;;;;;;;;17.41;100.00;98820.00;5042748;28;19924;-46
2022/10/26 07:26:27;;;;;;;;;;;;;;;17.84;100.00;98825.13;5038915;28;20031;-45
2022/10/26 07:28:53;;;;;;;;;;;;;;;17.84;100.00;98820.75;5042245;28;19916;-46
2022/10/26 07:31:18;;;;;;;;;;;;;;;17.85;100.00;98821.56;5041361;28;20415;-45
2022/10/26 07:33:44;;;;;;;;;;;;;;;17.82;100.00;98816.56;5040303;28;20009;-46
2022/10/26 07:36:09;;;;;;;;;;;;;;;17.93;100.00;98822.75;5040720;28;19924;-46
2022/10/26 07:38:35;;;;;;;;;;;;;;;18.02;100.00;98813.50;5035956;28;19928;-45
2022/10/26 07:41:00;;;;;;;;;;;;;;;18.14;100.00;98817.06;5035974;28;19920;-45
2022/10/26 07:43:25;;;;;;;;;;;;;;;18.21;100.00;98813.09;5041666;28;19921;-46
2022/10/26 07:45:51;;;;;;;;;;;;;;;18.09;100.00;98822.56;5039961;28;19917;-46
2022/10/26 07:48:16;;;;;;;;;;;;;;;17.83;100.00;98813.84;5041681;28;19933;-45
2022/10/26 07:50:41;;;;;;;;;;;;;;;18.50;100.00;98813.78;5040682;28;19917;-45
2022/10/26 07:53:06;;;;;;;;;;;;;;;18.24;100.00;98812.91;5041841;28;20002;-46
2022/10/26 07:55:32;;;;;;;;;;;;;;;18.08;100.00;98815.69;5040283;28;19970;-46
2022/10/26 07:57:57;;;;;;;;;;;;;;;18.48;100.00;98813.03;5041056;28;19925;-46
2022/10/26 08:00:22;;;;;;;;;;;;;;;18.42;100.00;98816.03;5040288;28;19958;-46
2022/10/26 08:02:47;;;;;;;;;;;;;;;18.29;100.00;98816.06;5041282;28;20024;-46
2022/10/26 08:05:13;;;;;;;;;;;;;;;18.47;100.00;98808.75;5041441;28;20324;-46
2022/10/26 08:07:42;;;;;;;;;;;;;;;18.58;100.00;98808.03;5040084;28;19920;-45
2022/10/26 08:10:07;;;;;;;;;;;;;;;19.07;100.00;98799.47;5036891;28;19956;-45
2022/10/26 08:12:32;;;;;;;;;;;;;;;18.46;100.00;98804.47;5040861;28;19970;-45
2022/10/26 08:14:58;;;;;;;;;;;;;;;18.58;100.00;98805.41;5039564;28;19924;-46
2022/10/26 08:17:23;;;;;;;;;;;;;;;18.24;100.00;98809.47;5040342;28;20031;-46
2022/10/26 08:19:48;;;;;;;;;;;;;;;18.75;100.00;98806.88;5040759;28;19924;-45
2022/10/26 08:22:13;;;;;;;;;;;;;;;18.52;100.00;98808.44;5052980;28;19925;-46
2022/10/26 08:24:39;;;;;;;;;;;;;;;18.95;100.00;98803.75;5040992;28;19924;-46
2022/10/26 08:27:05;;;;;;;;;;;;;;;18.81;100.00;98807.31;5039142;28;20066;-46
2022/10/26 08:29:30;;;;;;;;;;;;;;;18.70;100.00;98809.81;5037742;28;19925;-46
2022/10/26 08:31:56;;;;;;;;;;;;;;;18.87;100.00;98813.88;5039582;28;19931;-46
2022/10/26 08:34:21;;;;;;;;;;;;;;;19.45;100.00;98806.34;5040966;28;19957;-47
2022/10/26 08:36:46;;;;;;;;;;;;;;;19.01;100.00;98808.53;5039497;28;19999;-46
2022/10/26 08:39:11;;;;;;;;;;;;;;;18.97;100.00;98812.28;5039762;28;19944;-46
2022/10/26 08:41:39;;;;;;;;;;;;;;;18.75;100.00;98807.72;5039889;28;19935;-46
2022/10/26 08:44:07;;;;;;;;;;;;;;;19.27;100.00;98798.03;5040563;28;19924;-47
2022/10/26 08:46:35;;;;;;;;;;;;;;;18.76;100.00;98804.16;5038201;28;19928;-47
2022/10/26 08:49:09;;;;;;;;;;;;;;;18.52;100.00;98809.28;5037697;28;19921;-47
2022/10/26 08:51:36;;;;;;;;;;;;;;;18.98;100.00;98807.94;5040111;28;19921;-46
2022/10/26 08:54:12;;;;;;;;;;;;;;;19.27;100.00;98797.19;5040985;28;19948;-45
2022/10/26 08:56:37;;;;;;;;;;;;;;;18.79;100.00;98804.00;5039786;28;19921;-46
2022/10/26 08:59:09;;;;;;;;;;;;;;;19.23;100.00;98794.81;5038351;28;19928;-46
2022/10/26 09:01:34;;;;;;;;;;;;;;;18.96;100.00;98802.81;5037930;28;19928;-47
2022/10/26 09:04:00;;;;;;;;;;;;;;;19.26;100.00;98806.81;5039575;28;20011;-46
2022/10/26 09:06:46;;;;;;;;;;;;;;;19.24;100.00;98819.16;5036789;28;19990;-46
2022/10/26 09:09:21;;;;;;;;;;;;;;;19.13;100.00;98816.44;5033940;28;19921;-47
2022/10/26 09:11:52;;;;;;;;;;;;;;;19.71;100.00;98816.72;5040930;28;19916;-45
2022/10/26 09:14:18;;;;;;;;;;;;;;;20.22;100.00;98816.44;5031802;28;19943;-46
2022/10/26 09:17:02;;;;;;;;;;;;;;;20.42;100.00;98802.69;5039068;28;20378;-47
2022/10/26 09:19:46;;;;;;;;;;;;;;;20.70;100.00;98813.69;5035153;28;20051;-47
2022/10/26 09:22:20;;;;;;;;;;;;;;;19.96;100.00;98806.16;5039258;28;19927;-46
2022/10/26 09:24:52;;;;;;;;;;;;;;;19.85;100.00;98811.31;5037931;28;19936;-47
2022/10/26 09:27:38;;;;;;;;;;;;;;;19.37;100.00;98811.28;5034722;28;19921;-47
2022/10/26 09:30:10;;;;;;;;;;;;;;;19.97;100.00;98799.13;5037297;28;19970;-47
2022/10/26 09:32:37;;;;;;;;;;;;;;;19.94;100.00;98804.59;5037204;28;19999;-47
2022/10/26 09:35:03;;;;;;;;;;;;;;;19.88;100.00;98812.88;5039949;28;20785;-46
2022/10/26 09:37:30;;;;;;;;;;;;;;;20.08;100.00;98817.47;5034930;28;19960;-47
2022/10/26 09:40:04;;;;;;;;;;;;;;;20.77;100.00;98812.28;5037449;28;19916;-47
2022/10/26 09:42:39;;;;;;;;;;;;;;;20.60;100.00;98812.75;5037193;28;20363;-46
2022/10/26 09:45:22;;;;;;;;;;;;;;;20.61;100.00;98823.09;5038676;28;19925;-47
2022/10/26 09:47:51;;;;;;;;;;;;;;;20.37;100.00;98817.91;5038089;28;19927;-44
2022/10/26 09:50:16;;;;;;;;;;;;;;;20.76;100.00;98815.84;5037714;28;20025;-46
2022/10/26 09:52:41;;;;;;;;;;;;;;;21.22;100.00;98827.97;5038491;28;20137;-46
2022/10/26 09:55:09;;;;;;;;;;;;;;;21.20;100.00;98829.88;5037534;28;20433;-46
2022/10/26 09:57:35;;;;;;;;;;;;;;;21.71;100.00;98834.59;5037708;28;19921;-47
2022/10/26 10:00:00;;;;;;;;;;;;;;;21.82;100.00;98830.25;5038927;28;19921;-46
2022/10/26 10:02:32;;;;;;;;;;;;;;;22.02;100.00;98837.31;5036861;28;19929;-46
2022/10/26 10:04:57;;;;;;;;;;;;;;;22.08;100.00;98822.88;5039228;28;20417;-46
2022/10/26 10:07:23;;;;;;;;;;;;;;;21.88;100.00;98832.38;5039215;28;20031;-46
2022/10/26 10:10:07;;;;;;;;;;;;;;;22.39;100.00;98839.53;5038460;28;20391;-47
2022/10/26 10:12:32;;;;;;;;;;;;;;;22.67;100.00;98852.97;5036318;28;19932;-46
2022/10/26 10:14:57;;;;;;;;;;;;;;;22.36;100.00;98860.81;5037461;28;19924;-47
2022/10/26 10:17:23;;;;;;;;;;;;;;;22.01;100.00;98855.78;5035476;28;19921;-47
2022/10/26 10:19:48;;;;;;;;;;;;;;;23.25;100.00;98858.53;5036554;28;20711;-47
2022/10/26 10:22:13;;;;;;;;;;;;;;;23.28;100.00;98858.25;5036357;28;20571;-47
2022/10/26 10:24:39;;;;;;;;;;;;;;;23.01;100.00;98858.00;5036277;28;20016;-44
2022/10/26 10:27:15;;;;;;;;;;;;;;;23.12;100.00;98850.03;5034702;28;20340;-46
2022/10/26 10:29:44;;;;;;;;;;;;;;;23.19;100.00;98859.06;5037957;28;19920;-46
2022/10/26 10:32:13;;;;;;;;;;;;;;;23.37;100.00;98867.13;5038435;28;19917;-47
2022/10/26 10:34:39;;;;;;;;;;;;;;;23.16;100.00;98867.22;5038633;28;19964;-46
2022/10/26 10:37:04;;;;;;;;;;;;;;;23.50;100.00;98872.16;5035692;28;19968;-46
2022/10/26 11:13:03;;;;;;;;;;;;;;;23.59;100.00;98913.41;5037322;28;19927;-46
2022/10/26 11:15:30;;;;;;;;;;;;;;;24.21;100.00;98917.56;5037332;28;20020;-47
2022/10/26 11:18:06;;;;;;;;;;;;;;;24.39;100.00;98911.59;5036177;28;19920;-46
2022/10/26 11:20:32;;;;;;;;;;;;;;;24.84;100.00;98922.38;5039967;28;19924;-46
2022/10/26 11:22:59;;;;;;;;;;;;;;;24.69;100.00;98917.69;5040655;28;19968;-47
2022/10/26 11:25:26;;;;;;;;;;;;;;;24.62;100.00;98928.78;5040292;28;19991;-47
2022/10/26 11:27:58;;;;;;;;;;;;;;;24.75;100.00;98938.22;5036870;28;19989;-46
2022/10/26 11:30:24;;;;;;;;;;;;;;;24.49;100.00;98943.22;5041238;28;20019;-47
2022/10/26 11:32:51;;;;;;;;;;;;;;;24.53;100.00;98942.78;5042283;28;20400;-47
2022/10/26 11:35:30;;;;;;;;;;;;;;;23.47;100.00;98951.25;5039843;28;19978;-46
2022/10/26 11:38:07;;;;;;;;;;;;;;;24.55;100.00;98956.66;5039083;28;19917;-47
2022/10/26 11:40:53;;;;;;;;;;;;;;;25.04;100.00;98940.75;5042497;28;19916;-46
2022/10/26 11:43:21;;;;;;;;;;;;;;;24.94;100.00;98948.69;5040303;28;20011;-46
2022/10/26 11:46:16;;;;;;;;;;;;;;;25.39;100.00;98947.22;5040778;28;19916;-46
2022/10/26 11:48:41;;;;;;;;;;;;;;;24.35;100.00;98954.97;5050387;28;20350;-46
2022/10/26 11:51:08;;;;;;;;;;;;;;;24.88;100.00;98953.69;5040912;28;20009;-47
2022/10/26 11:53:37;;;;;;;;;;;;;;;25.03;100.00;98942.56;5040056;28;20054;-47
2022/10/26 11:56:03;;;;;;;;;;;;;;;26.00;100.00;98935.25;5038770;28;19924;-46
2022/10/26 11:58:28;;;;;;;;;;;;;;;25.29;100.00;98941.97;5040746;28;19950;-47
2022/10/26 12:00:54;;;;;;;;;;;;;;;25.71;100.00;98952.06;5038539;28;20091;-47
2022/10/26 12:03:30;;;;;;;;;;;;;;;26.32;100.00;98944.47;5038502;28;19921;-46
2022/10/26 12:05:56;;;;;;;;;;;;;;;25.36;100.00;98953.63;5040871;28;19970;-45
2022/10/26 12:08:32;;;;;;;;;;;;;;;24.91;100.00;98949.00;5041149;28;19945;-46
2022/10/26 12:11:13;;;;;;;;;;;;;;;25.75;100.00;98949.94;5040648;28;19924;-47
2022/10/26 12:13:38;;;;;;;;;;;;;;;25.57;100.00;98949.94;5041967;28;19917;-46
2022/10/26 12:16:18;;;;;;;;;;;;;;;26.08;100.00;98953.81;5041412;28;19942;-46
2022/10/26 12:18:43;;;;;;;;;;;;;;;25.23;100.00;98968.91;5039305;28;19916;-47
2022/10/26 12:21:08;;;;;;;;;;;;;;;25.46;100.00;98969.41;5041454;28;19932;-46
2022/10/26 12:23:35;;;;;;;;;;;;;;;25.69;100.00;98966.38;5040996;28;19917;-46
2022/10/26 12:26:19;;;;;;;;;;;;;;;24.98;100.00;98976.44;5040274;28;19916;-46
2022/10/26 12:28:44;;;;;;;;;;;;;;;24.14;100.00;98992.75;5040178;28;19982;-46
2022/10/26 12:31:28;;;;;;;;;;;;;;;25.13;100.00;98976.81;5040948;28;19928;-46
2022/10/26 12:33:54;;;;;;;;;;;;;;;23.79;100.00;98999.31;5041351;28;19927;-46
2022/10/26 12:36:38;;;;;;;;;;;;;;;25.04;100.00;98981.16;5039116;28;19925;-46
2022/10/26 12:39:03;;;;;;;;;;;;;;;25.40;100.00;98993.69;5040898;28;19959;-46
2022/10/26 12:41:28;;;;;;;;;;;;;;;24.78;100.00;98993.22;5056366;28;19963;-46
2022/10/26 12:43:54;;;;;;;;;;;;;;;25.09;100.00;98995.69;5040977;28;19955;-47
2022/10/26 12:46:20;;;;;;;;;;;;;;;24.92;100.00;99011.25;5039167;28;19978;-47
2022/10/26 12:48:45;;;;;;;;;;;;;;;24.47;100.00;99013.56;5040353;28;20393;-46
2022/10/26 12:51:17;;;;;;;;;;;;;;;24.67;100.00;99027.63;5040659;28;19974;-46
2022/10/26 12:53:42;;;;;;;;;;;;;;;24.99;100.00;99014.97;5041491;28;19921;-46
2022/10/26 12:56:08;;;;;;;;;;;;;;;24.97;100.00;99009.00;5041163;28;20336;-46
2022/10/26 12:58:57;;;;;;;;;;;;;;;24.58;100.00;99009.03;5040434;28;19963;-46
2022/10/26 13:01:22;;;;;;;;;;;;;;;25.45;100.00;99016.03;5029985;28;19971;-46
2022/10/26 13:03:57;;;;;;;;;;;;;;;25.03;100.00;99021.63;5040980;28;20401;-46
2022/10/26 13:06:49;;;;;;;;;;;;;;;24.54;100.00;99020.81;5038921;28;19917;-46
2022/10/26 13:09:21;;;;;;;;;;;;;;;24.68;100.00;99024.00;5031657;28;19944;-46
2022/10/26 13:11:47;;;;;;;;;;;;;;;23.25;100.00;99044.25;5038825;28;19916;-45
2022/10/26 13:14:20;;;;;;;;;;;;;;;24.19;100.00;99040.53;5038946;28;19940;-46